x

New Dungeness - 17 Nm Ne Of Port Angeles, Wa (46088) Wave Buoy

8:20 - Thu 23rd Mar 2017 All times are PDT. -7 hours from GMT.

  • Sig Wave height 3.9ft
  • Swell Direction
  • Peak Period 4s
  • Average Period 4s
  • Wind
    31mph, 40mph gusts
  • Sea Temp 47°f
  • Aire Temp 49°f
  • Sea Pressure 1007.9mb
  • New Dungeness - 17 Nm Ne Of Port Angeles, Wa
  • New Dungeness - 17 Nm Ne Of Port Angeles, Wa

More Historic Weather Station data

Upgrade to MSW Pro to gain access to the past 30 days of data for over 8000 Wavebouys and Weather Stations around the globe.

Join Pro

Comparision Forecast

View Surf forecast
   
jue 03/23 8:20 4ft 4s 4s 31 40 mph 1007.9mb 47f 49f
7:50 3ft 4s 3s 29 36 mph 1008.7mb 47f 50f
7:20 2.5ft 4s 3s 27 36 mph 1009.2mb 47f 51f
6:50 2.5ft 4s 3s 27 34 mph 1009.5mb 47f 51f
6:20 2.5ft 4s 3s 22 25 mph 1010mb 47f 50f
5:50 3ft 4s 4s 25 29 mph 1010.4mb 47f 50f
5:20 3.5ft 4s 4s 25 31 mph 1010.6mb 47f 50f
4:50 3ft 4s 4s 22 25 mph 1011.3mb 47f 49f
4:20 3ft 4s 4s 22 25 mph 1011.9mb 47f 49f
3:50 3ft 4s 4s 20 25 mph 1012.3mb 47f 49f
3:20 3ft 4s 4s 18 20 mph 1012.8mb 47f 48f
2:50 3.5ft 4s 4s 16 20 mph 1013.4mb 47f 48f
2:20 2.5ft 4s 4s 20 27 mph 1013.6mb 47f 48f
1:50 2ft 4s 4s 18 25 mph 1013.9mb 47f 47f
1:20 2ft 4s 4s 2 4 mph 1014.7mb 47f 45f
12:50 1.6ft 4s 4s 2 4 mph 1014.9mb 47f 45f
12:20 1.3ft 3s 3s 2 4 mph 1015.1mb 47f 45f
11:50 1.6ft 4s 3s 7
mph
1015.3mb 47f 44f
11:20 1.6ft 3s 3s 11 13 mph 1015.4mb 47f 44f
10:50 1.3ft 4s 3s 13 18 mph 1015.3mb 47f 45f
10:20 1.3ft 3s 3s 11 13 mph 1015.6mb 47f 46f
9:50 1ft 3s 3s 11 13 mph 1016.2mb 47f 44f
9:20 1ft 3s 3s 11 13 mph 1016.2mb 47f 44f
8:50 1ft 3s 3s 11 13 mph 1016.3mb 47f 45f
8:20 1ft 3s 3s 11 13 mph 1016.3mb 46f 44f
7:50 1ft 3s 3s 13 16 mph 1016.1mb 46f 44f
7:20 1.3ft 4s 3s 7 11 mph 1016.2mb 46f 45f
6:50 1.3ft 3s 3s 2 4 mph 1016.2mb 46f 44f
6:20 1ft 4s 3s 4
mph
1016.3mb 47f 44f
5:50 1ft 3s 3s 7 9 mph 1016.1mb 47f 44f
5:20 1ft 3s 3s 7
mph
1016.2mb 47f 44f
4:50 1ft 3s 3s 9 11 mph 1015.8mb 47f 44f
4:20 1.3ft 3s 3s 4 7 mph 1016.1mb 47f 44f
3:50 1.3ft 3s 3s 4 7 mph 1016.2mb 47f 44f
3:20 1.3ft 3s 3s 9 11 mph 1016mb 47f 44f
2:50 1.3ft 3s 3s 13 16 mph 1015.8mb 47f 45f
2:20 1ft 4s 3s 13 16 mph 1015.7mb 47f 45f
1:50 1ft 4s 3s 13 16 mph 1016.1mb 47f 45f
1:20 1ft 5s 3s 9 11 mph 1016.5mb 47f 46f
12:50 1ft 4s  -  7 13 mph 1016.6mb 47f 46f
12:20 1.3ft 3s  -  11 13 mph 1016.4mb 47f 47f
mié 03/22 11:50 1.6ft 3s 3s 11 13 mph 1016.3mb 47f 46f
11:20 2ft 4s 3s 7 9 mph 1016.1mb 47f 46f
10:50 2.5ft 4s 4s 9 11 mph 1015.9mb 47f 46f
10:20 3.5ft 5s 4s 11 16 mph 1015.8mb 47f 46f
9:50 3.5ft 5s 4s 18 20 mph 1015.3mb 47f 47f
9:20 4ft 5s 4s 22 27 mph 1014.9mb 47f 47f
8:50 5ft 5s 5s 25 27 mph 1014.3mb 47f 47f
8:20 5ft 5s 5s 25 31 mph 1013.5mb 47f 47f
7:50 4.5ft 6s 5s 27 34 mph 1012.8mb 47f 47f
7:20 4ft 5s 4s 29 36 mph 1011.9mb 47f 47f
6:50 3.5ft 5s 4s 29 38 mph 1011.5mb 47f 48f
6:20 2.5ft 5s 4s 27 31 mph 1011.3mb 47f 47f
5:50 2.5ft 4s 4s 27 31 mph 1011mb 47f 48f
5:20 2ft 4s 3s 22 27 mph 1010.8mb 47f 48f
4:50 2ft 3s 3s 22 27 mph 1010.2mb 47f 49f
4:20 1.6ft 4s 4s 20 25 mph 1009.7mb 47f 48f
3:50 2ft 4s 4s 4 7 mph 1008.6mb 48f 49f
3:20 2ft 4s 4s 2
mph
1007.9mb 48f 49f
2:50 1.6ft 4s 4s 4 7 mph 1007.6mb 48f 49f
2:20 1ft 4s 4s 4
mph
1007.6mb 48f 49f
1:50 1ft 4s 3s 4
mph
1007.5mb 48f 48f
1:20 1ft 4s 3s 4 7 mph 1007.4mb 48f 49f
12:50 1ft 4s 3s 2
mph
1007.4mb 47f 49f
12:20 1ft 4s 3s  -  2 mph 1007.4mb 47f 49f
11:50 1.3ft 3s 3s 2 4 mph 1007.2mb 47f 48f
11:20 1.3ft 4s 4s 4
mph
1007.1mb 47f 48f
10:50 1.3ft 4s 4s 7
mph
1006.7mb 47f 47f
10:20 1.3ft 4s 4s 7 9 mph 1006.3mb 47f 47f
9:50 1.3ft 4s 4s 7 9 mph 1006.1mb 47f 47f
9:20 1.3ft 4s 4s 9 11 mph 1005.9mb 47f 47f
8:50 1.6ft 4s 4s 9 11 mph 1005.6mb 47f 47f
8:20 2.5ft 4s 4s 9
mph
1005.2mb 47f 47f
7:50 2.5ft 4s 4s 9
mph
1004.7mb 47f 47f
7:20 2.5ft 4s 4s 4 7 mph 1004.3mb 47f 47f
6:50 3ft 4s 4s 7 11 mph 1004mb 47f 48f
6:20 3.5ft 4s 4s 4 7 mph 1003.3mb 47f 48f
5:50 3.5ft 4s 4s 22 27 mph 1002.6mb 47f 49f
5:20 3.5ft 4s 4s 25 31 mph 1002.1mb 47f 49f
4:50 3ft 4s 4s 27 34 mph 1001.7mb 47f 49f
4:20 2.5ft 4s 3s 18 25 mph 1002.6mb 47f 49f
3:50 2.5ft 4s 4s 22 27 mph 1002.6mb 47f 49f
3:20 2.5ft 4s 4s 20 22 mph 1002.9mb 47f 49f
2:50 2.5ft 4s 4s 13 16 mph 1003.5mb 47f 50f
2:20 1ft 3s 3s 13 20 mph 1003.6mb 47f 49f
1:50 0.3ft  -  3s 20 22 mph 1003.4mb 47f 49f
1:20 0.3ft  -  4s 13 16 mph 1003.8mb 47f 49f
12:50 0.3ft  -  4s 7 9 mph 1004.3mb 47f 49f
12:20 0.3ft  -  4s 7
mph
1004.7mb 47f 48f
mar 03/21 11:50 0.3ft  -  3s 7 9 mph 1004.7mb 47f 47f
11:20 0.3ft  -  3s 9 11 mph 1005mb 47f 48f
10:50 0.7ft  -  3s 11 13 mph 1004.9mb 47f 47f
10:20 0.3ft  -  3s 4 7 mph 1004.6mb 47f 47f
9:50 0.7ft  -  3s  -  2 mph 1004.4mb 47f 47f
9:20 0.7ft  -  3s  -  2 mph 1004.7mb 47f 48f
8:50 0.7ft  -  3s 2
mph
1004.7mb 47f 48f
8:20 0.7ft  -  3s  -  mph 1004.8mb 47f 48f
7:50 0.7ft  -  3s  -  2 mph 1004.8mb 48f 48f
7:20 0.7ft  -  3s 4
mph
1004.7mb 47f 48f
6:50 0.7ft  -  3s 7
mph
1004.5mb 48f 49f
6:20 1ft 3s 3s 7 9 mph 1004.2mb 47f 49f
5:50 1ft 3s 3s 7
mph
1004.3mb 48f 48f
5:20 0.7ft  -  3s 7
mph
1004.2mb 48f 49f
4:50 0.7ft  -  3s 4
mph
1004.4mb 47f 50f
4:20 0.7ft  -  3s 4
mph
1004.5mb 47f 48f
3:50 0.7ft  -  3s 4 7 mph 1004.5mb 47f 48f
3:20 0.7ft  -  3s 7 9 mph 1004mb 47f 49f
2:50 0.7ft  -  3s 11 13 mph 1004.1mb 47f 49f
2:20 0.7ft  -  3s 9 11 mph 1004.3mb 47f 49f
1:50 1ft 2s 3s 13 18 mph 1004.2mb 47f 47f
1:20 0.7ft  -  3s 18 20 mph 1003.8mb 47f 47f
12:50 1ft 3s 3s 9 11 mph 1004.6mb 47f 49f
12:20 1ft 3s 3s 9 11 mph 1004.5mb 47f 48f
11:50 1ft 3s 3s 9 11 mph 1004.4mb 47f 48f
11:20 1ft 3s 3s 11 13 mph 1004.4mb 47f 48f
10:50 1.3ft 3s 3s 11 13 mph 1004.7mb 46f 47f
10:20 1.6ft 6s 3s 11 16 mph 1004.8mb 46f 47f
9:50 1.6ft 3s 3s 16 18 mph 1004.8mb 46f 47f
9:20 1.6ft 3s 3s 18 20 mph 1004.7mb 46f 47f
8:50 1.6ft 3s 3s 13 16 mph 1005mb 46f 47f
8:20 2ft 4s 3s 11 13 mph 1005.1mb 46f 47f
7:50 2ft 4s 3s 16 18 mph 1005.1mb 46f 47f
7:20 1.6ft 3s 3s 18 20 mph 1004.9mb 46f 47f
6:50 1.6ft 3s 3s 18 22 mph 1005.2mb 46f 47f
6:20 1ft 3s 3s 20 25 mph 1005mb 46f 48f
5:50 1ft 3s 3s 13 18 mph 1005.3mb 46f 47f
5:20 0.7ft  -  3s 11 16 mph 1005.6mb 46f 47f
4:50 0.7ft  -  3s 11 13 mph 1005.7mb 46f 47f
4:20 0.7ft  -  3s 11 13 mph 1006mb 46f 48f
3:50 0.7ft  -  3s 13 16 mph 1006.2mb 46f 48f
2:50 0.7ft  -  3s 11 13 mph 1007.3mb 46f 48f
2:20 1ft 3s 3s 11 13 mph 1007.7mb 46f 47f
1:50 1ft 3s 3s 11 13 mph 1008.1mb 46f 47f
1:20 1ft 3s 3s 11 13 mph 1008.4mb 46f 48f
12:50 1ft 3s 3s 13 16 mph 1008.8mb 46f 48f
12:20 1ft 3s 3s 13 16 mph 1009.3mb 46f 48f
lun 03/20 11:50 1ft 3s 3s 11 13 mph 1009.9mb 46f 48f
11:20 0.7ft  -  3s 13 16 mph 1010mb 46f 48f
10:50 0.7ft  -  3s 16 18 mph 1010.5mb 46f 49f
10:20 0.7ft  -  3s 16 18 mph 1010.9mb 46f 49f
9:50 0.7ft  -  3s 9 11 mph 1011.2mb 46f 48f
9:20 0.7ft  -  3s 13 16 mph 1011.3mb 46f 48f
8:50 0.7ft  -  3s 9 13 mph 1011.5mb 46f 47f
8:20 0.7ft  -  3s 11 13 mph 1011.6mb 46f 48f
7:50 0.7ft  -  3s 9 11 mph 1011.8mb 46f 48f
7:20 1ft 3s 3s 11 16 mph 1011.8mb 46f 49f
6:50 1ft 3s 3s 13 20 mph 1011.8mb 46f 49f
6:20 1.3ft 3s 3s 16 22 mph 1011.6mb 46f 51f
5:50 1.3ft 3s 3s 18 22 mph 1011.7mb 46f 47f
5:20 1.3ft 3s 3s 18 20 mph 1012mb 47f 47f
4:50 1.3ft 3s 3s 18 20 mph 1012.5mb 47f 47f
4:20 1.3ft 3s 3s 16 18 mph 1012.9mb 47f 47f
3:50 1ft 3s 3s 18 22 mph 1012.6mb 47f 47f
3:20 0.7ft  -  3s 9 11 mph 1013.7mb 47f 46f
2:50 0.7ft  -  3s 9
mph
1014.1mb 47f 46f
2:20 0.7ft  -  3s 7 9 mph 1014.4mb 47f 46f
1:50 0.7ft  -  3s 2 4 mph 1014.9mb 47f 46f
1:20 1ft 3s 3s 4
mph
1015.3mb 47f 46f
12:50 1ft 3s 3s 2 4 mph 1015.7mb 47f 47f
12:20 1ft 3s 3s 9 11 mph 1016mb 46f 47f
11:50 1ft 3s 3s 9
mph
1016.6mb 46f 46f
11:20 1ft 3s 3s 9 11 mph 1017mb 46f 46f
10:50 1ft 3s 3s 11 13 mph 1017.1mb 46f 45f
10:20 1ft 3s 3s 13
mph
1017.2mb 46f 45f
9:50 1ft 3s 3s 11 16 mph 1017.4mb 46f 45f
9:20 1ft 3s 3s 13 16 mph 1017.7mb 46f 44f
8:50 1ft 3s 3s 13 16 mph 1017.8mb 46f 44f
8:20 1ft 3s 3s 13 16 mph 1018.2mb 46f 44f
7:50 1.3ft 3s 3s 13 16 mph 1018.4mb 46f 44f
7:20 1.3ft 3s 3s 13 18 mph 1018.3mb 46f 43f
6:50 1ft 3s 3s 16 18 mph 1018.5mb 46f 43f
6:20 1ft 3s 3s 18 20 mph 1018.7mb 46f 44f
5:50 1.3ft 3s 3s 13 18 mph 1019.4mb 46f 44f
5:20 1.3ft 3s 3s 13 18 mph 1019.6mb 46f 44f
4:50 1.3ft 3s 3s 13 16 mph 1019.8mb 46f 44f
4:20 1.3ft 3s 3s 13 16 mph 1020.2mb 46f 44f